sensor_id;sensor_type;location;lat;lon;timestamp;pressure;altitude;pressure_sealevel;temperature;humidity
46347;BME280;32057;47.830;19.046;2023-05-03T00:00:06;100572.50;;;13.62;100.00
46347;BME280;32057;47.830;19.046;2023-05-03T00:02:33;100567.09;;;13.48;100.00
46347;BME280;32057;47.830;19.046;2023-05-03T00:05:00;100561.81;;;13.43;100.00
46347;BME280;32057;47.830;19.046;2023-05-03T00:07:25;100563.66;;;13.50;100.00
46347;BME280;32057;47.830;19.046;2023-05-03T00:09:50;100560.19;;;13.53;100.00
46347;BME280;32057;47.830;19.046;2023-05-03T00:12:16;100559.31;;;13.52;100.00
46347;BME280;32057;47.830;19.046;2023-05-03T00:14:42;100549.72;;;13.51;100.00
46347;BME280;32057;47.830;19.046;2023-05-03T00:17:07;100558.47;;;13.52;100.00
46347;BME280;32057;47.830;19.046;2023-05-03T00:19:32;100558.53;;;13.61;100.00
46347;BME280;32057;47.830;19.046;2023-05-03T00:21:59;100549.03;;;13.66;100.00
46347;BME280;32057;47.830;19.046;2023-05-03T00:24:25;100539.34;;;13.56;100.00
46347;BME280;32057;47.830;19.046;2023-05-03T00:26:51;100533.22;;;13.57;100.00
46347;BME280;32057;47.830;19.046;2023-05-03T00:29:16;100528.00;;;13.57;100.00
46347;BME280;32057;47.830;19.046;2023-05-03T00:31:45;100529.75;;;13.60;100.00
46347;BME280;32057;47.830;19.046;2023-05-03T00:34:10;100533.22;;;13.57;100.00
46347;BME280;32057;47.830;19.046;2023-05-03T00:36:36;100540.28;;;13.63;100.00
46347;BME280;32057;47.830;19.046;2023-05-03T00:39:01;100539.41;;;13.65;100.00
46347;BME280;32057;47.830;19.046;2023-05-03T00:41:26;100540.25;;;13.61;100.00
46347;BME280;32057;47.830;19.046;2023-05-03T00:43:52;100550.69;;;13.61;100.00
46347;BME280;32057;47.830;19.046;2023-05-03T00:46:17;100553.34;;;13.66;100.00
46347;BME280;32057;47.830;19.046;2023-05-03T00:48:47;100544.59;;;13.61;100.00
46347;BME280;32057;47.830;19.046;2023-05-03T00:51:14;100545.47;;;13.61;100.00
46347;BME280;32057;47.830;19.046;2023-05-03T00:53:43;100544.63;;;13.64;100.00
46347;BME280;32057;47.830;19.046;2023-05-03T00:56:09;100541.94;;;13.56;100.00
46347;BME280;32057;47.830;19.046;2023-05-03T00:58:36;100540.19;;;13.55;100.00
46347;BME280;32057;47.830;19.046;2023-05-03T01:01:07;100539.34;;;13.56;100.00
46347;BME280;32057;47.830;19.046;2023-05-03T01:03:32;100546.31;;;13.59;100.00
46347;BME280;32057;47.830;19.046;2023-05-03T01:08:58;100540.19;;;13.57;100.00
46347;BME280;32057;47.830;19.046;2023-05-03T01:11:33;100544.63;;;13.62;100.00
46347;BME280;32057;47.830;19.046;2023-05-03T01:14:09;100545.47;;;13.58;100.00
46347;BME280;32057;47.830;19.046;2023-05-03T01:16:43;100549.75;;;13.54;100.00
46347;BME280;32057;47.830;19.046;2023-05-03T01:19:36;100547.19;;;13.56;100.00
46347;BME280;32057;47.830;19.046;2023-05-03T01:22:17;100539.28;;;13.53;100.00
46347;BME280;32057;47.830;19.046;2023-05-03T01:25:10;100538.44;;;13.54;100.00
46347;BME280;32057;47.830;19.046;2023-05-03T01:27:35;100536.66;;;13.53;100.00
46347;BME280;32057;47.830;19.046;2023-05-03T01:30:09;100535.81;;;13.54;100.00
46347;BME280;32057;47.830;19.046;2023-05-03T01:35:35;100536.66;;;13.53;100.00
46347;BME280;32057;47.830;19.046;2023-05-03T01:38:02;100543.66;;;13.54;100.00
46347;BME280;32057;47.830;19.046;2023-05-03T01:40:29;100541.03;;;13.52;100.00
46347;BME280;32057;47.830;19.046;2023-05-03T01:42:56;100534.94;;;13.55;100.00
46347;BME280;32057;47.830;19.046;2023-05-03T01:45:25;100539.34;;;13.56;100.00
46347;BME280;32057;47.830;19.046;2023-05-03T01:47:50;100550.69;;;13.58;100.00
46347;BME280;32057;47.830;19.046;2023-05-03T01:50:16;100546.13;;;13.43;100.00
46347;BME280;32057;47.830;19.046;2023-05-03T01:52:41;100545.97;;;13.29;100.00
46347;BME280;32057;47.830;19.046;2023-05-03T01:55:07;100536.34;;;13.28;100.00
46347;BME280;32057;47.830;19.046;2023-05-03T01:57:32;100543.34;;;13.29;100.00
46347;BME280;32057;47.830;19.046;2023-05-03T01:59:58;100545.19;;;13.37;100.00
46347;BME280;32057;47.830;19.046;2023-05-03T02:02:23;100542.59;;;13.37;100.00
46347;BME280;32057;47.830;19.046;2023-05-03T02:04:48;100537.38;;;13.38;100.00
46347;BME280;32057;47.830;19.046;2023-05-03T02:07:14;100540.06;;;13.44;100.00
46347;BME280;32057;47.830;19.046;2023-05-03T02:09:39;100548.78;;;13.48;100.00
46347;BME280;32057;47.830;19.046;2023-05-03T02:12:05;100544.38;;;13.44;100.00
46347;BME280;32057;47.830;19.046;2023-05-03T02:14:31;100533.06;;;13.43;100.00
46347;BME280;32057;47.830;19.046;2023-05-03T02:16:57;100539.19;;;13.45;100.00
46347;BME280;32057;47.830;19.046;2023-05-03T02:19:23;100529.59;;;13.43;100.00
46347;BME280;32057;47.830;19.046;2023-05-03T02:21:49;100537.44;;;13.44;100.00
46347;BME280;32057;47.830;19.046;2023-05-03T02:24:14;100530.41;;;13.39;100.00
46347;BME280;32057;47.830;19.046;2023-05-03T02:26:40;100534.75;;;13.40;100.00
46347;BME280;32057;47.830;19.046;2023-05-03T02:29:05;100529.53;;;13.40;100.00
46347;BME280;32057;47.830;19.046;2023-05-03T02:31:31;100527.81;;;13.42;100.00
46347;BME280;32057;47.830;19.046;2023-05-03T02:33:56;100528.63;;;13.38;100.00
46347;BME280;32057;47.830;19.046;2023-05-03T02:36:22;100523.44;;;13.39;100.00
46347;BME280;32057;47.830;19.046;2023-05-03T02:38:47;100517.34;;;13.42;100.00
46347;BME280;32057;47.830;19.046;2023-05-03T02:41:13;100520.78;;;13.38;100.00
46347;BME280;32057;47.830;19.046;2023-05-03T02:43:38;100522.50;;;13.32;100.00
46347;BME280;32057;47.830;19.046;2023-05-03T02:46:03;100528.63;;;13.34;100.00
46347;BME280;32057;47.830;19.046;2023-05-03T02:48:29;100529.47;;;13.33;100.00
46347;BME280;32057;47.830;19.046;2023-05-03T02:50:54;100524.22;;;13.33;100.00
46347;BME280;32057;47.830;19.046;2023-05-03T02:53:20;100525.94;;;13.31;100.00
46347;BME280;32057;47.830;19.046;2023-05-03T02:55:46;100529.34;;;13.27;100.00
46347;BME280;32057;47.830;19.046;2023-05-03T02:58:11;100516.41;;;13.32;100.00
46347;BME280;32057;47.830;19.046;2023-05-03T03:00:36;100515.50;;;13.31;100.00
46347;BME280;32057;47.830;19.046;2023-05-03T03:03:02;100526.75;;;13.27;100.00
46347;BME280;32057;47.830;19.046;2023-05-03T03:05:27;100524.22;;;13.30;100.00
46347;BME280;32057;47.830;19.046;2023-05-03T03:07:53;100524.22;;;13.30;100.00
46347;BME280;32057;47.830;19.046;2023-05-03T03:10:18;100522.44;;;13.29;100.00
46347;BME280;32057;47.830;19.046;2023-05-03T03:12:44;100521.53;;;13.29;100.00
46347;BME280;32057;47.830;19.046;2023-05-03T03:15:10;100508.44;;;13.24;100.00
46347;BME280;32057;47.830;19.046;2023-05-03T03:17:35;100510.97;;;13.20;100.00
46347;BME280;32057;47.830;19.046;2023-05-03T03:20:07;100510.09;;;13.19;100.00
46347;BME280;32057;47.830;19.046;2023-05-03T03:22:36;100517.00;;;13.15;100.00
46347;BME280;32057;47.830;19.046;2023-05-03T03:25:03;100514.31;;;13.09;100.00
46347;BME280;32057;47.830;19.046;2023-05-03T03:27:29;100517.81;;;13.10;100.00
46347;BME280;32057;47.830;19.046;2023-05-03T03:29:54;100518.69;;;13.10;100.00
46347;BME280;32057;47.830;19.046;2023-05-03T03:32:20;100515.28;;;13.16;100.00
46347;BME280;32057;47.830;19.046;2023-05-03T03:34:46;100520.53;;;13.16;100.00
46347;BME280;32057;47.830;19.046;2023-05-03T03:37:11;100517.91;;;13.16;100.00
46347;BME280;32057;47.830;19.046;2023-05-03T03:39:37;100516.13;;;13.15;100.00
46347;BME280;32057;47.830;19.046;2023-05-03T03:42:07;100517.00;;;13.14;100.00
46347;BME280;32057;47.830;19.046;2023-05-03T03:44:33;100524.84;;;13.15;100.00
46347;BME280;32057;47.830;19.046;2023-05-03T03:46:58;100524.91;;;13.22;100.00
46347;BME280;32057;47.830;19.046;2023-05-03T03:49:24;100527.53;;;13.20;100.00
46347;BME280;32057;47.830;19.046;2023-05-03T03:51:49;100525.84;;;13.25;100.00
46347;BME280;32057;47.830;19.046;2023-05-03T03:54:15;100532.00;;;13.29;100.00
46347;BME280;32057;47.830;19.046;2023-05-03T03:56:40;100523.22;;;13.22;100.00
46347;BME280;32057;47.830;19.046;2023-05-03T03:59:06;100529.28;;;13.21;100.00
46347;BME280;32057;47.830;19.046;2023-05-03T04:01:32;100529.28;;;13.21;100.00
46347;BME280;32057;47.830;19.046;2023-05-03T04:03:57;100530.22;;;13.26;100.00
46347;BME280;32057;47.830;19.046;2023-05-03T04:06:23;100535.34;;;13.19;100.00
46347;BME280;32057;47.830;19.046;2023-05-03T04:08:48;100539.66;;;13.15;100.00
46347;BME280;32057;47.830;19.046;2023-05-03T04:11:14;100535.22;;;13.09;100.00
46347;BME280;32057;47.830;19.046;2023-05-03T04:13:39;100543.03;;;13.08;100.00
46347;BME280;32057;47.830;19.046;2023-05-03T04:16:05;100536.13;;;13.13;100.00
46347;BME280;32057;47.830;19.046;2023-05-03T04:18:31;100542.22;;;13.10;100.00
46347;BME280;32057;47.830;19.046;2023-05-03T04:20:56;100543.84;;;13.02;100.00
46347;BME280;32057;47.830;19.046;2023-05-03T04:23:22;100534.28;;;13.06;100.00
46347;BME280;32057;47.830;19.046;2023-05-03T04:25:47;100545.72;;;13.12;100.00
46347;BME280;32057;47.830;19.046;2023-05-03T04:28:13;100550.97;;;13.15;100.00
46347;BME280;32057;47.830;19.046;2023-05-03T04:30:40;100552.78;;;13.20;100.00
46347;BME280;32057;47.830;19.046;2023-05-03T04:33:11;100549.22;;;13.13;100.00
46347;BME280;32057;47.830;19.046;2023-05-03T04:35:36;100559.72;;;13.18;100.00
46347;BME280;32057;47.830;19.046;2023-05-03T04:38:03;100569.34;;;13.20;100.00
46347;BME280;32057;47.830;19.046;2023-05-03T04:40:28;100561.50;;;13.22;100.00
46347;BME280;32057;47.830;19.046;2023-05-03T04:42:54;100565.78;;;13.15;100.00
46347;BME280;32057;47.830;19.046;2023-05-03T04:45:20;100570.16;;;13.18;100.00
46347;BME280;32057;47.830;19.046;2023-05-03T04:47:45;100571.94;;;13.19;100.00
46347;BME280;32057;47.830;19.046;2023-05-03T04:50:11;100567.56;;;13.19;100.00
46347;BME280;32057;47.830;19.046;2023-05-03T04:52:37;100570.22;;;13.21;100.00
46347;BME280;32057;47.830;19.046;2023-05-03T04:55:02;100573.75;;;13.26;100.00
46347;BME280;32057;47.830;19.046;2023-05-03T04:57:29;100569.44;;;13.26;100.00
46347;BME280;32057;47.830;19.046;2023-05-03T04:59:56;100571.94;;;13.19;100.00
46347;BME280;32057;47.830;19.046;2023-05-03T05:02:21;100571.06;;;13.18;100.00
46347;BME280;32057;47.830;19.046;2023-05-03T05:04:47;100567.44;;;13.10;100.00
46347;BME280;32057;47.830;19.046;2023-05-03T05:07:12;100568.44;;;13.20;100.00
46347;BME280;32057;47.830;19.046;2023-05-03T05:09:38;100564.94;;;13.16;100.00
46347;BME280;32057;47.830;19.046;2023-05-03T05:12:04;100567.50;;;13.13;100.00
46347;BME280;32057;47.830;19.046;2023-05-03T05:14:30;100563.09;;;13.09;100.00
46347;BME280;32057;47.830;19.046;2023-05-03T05:16:56;100563.97;;;13.11;100.00
46347;BME280;32057;47.830;19.046;2023-05-03T05:19:21;100562.19;;;13.07;100.00
46347;BME280;32057;47.830;19.046;2023-05-03T05:21:47;100565.69;;;13.09;100.00
46347;BME280;32057;47.830;19.046;2023-05-03T05:24:12;100562.31;;;13.16;100.00
46347;BME280;32057;47.830;19.046;2023-05-03T05:26:38;100569.22;;;13.11;100.00
46347;BME280;32057;47.830;19.046;2023-05-03T05:29:03;100578.78;;;13.12;100.00
46347;BME280;32057;47.830;19.046;2023-05-03T05:31:30;100589.28;;;13.15;100.00
46347;BME280;32057;47.830;19.046;2023-05-03T05:33:55;100596.25;;;13.14;100.00
46347;BME280;32057;47.830;19.046;2023-05-03T05:36:20;100598.88;;;13.14;100.00
46347;BME280;32057;47.830;19.046;2023-05-03T05:38:46;100600.72;;;13.20;100.00
46347;BME280;32057;47.830;19.046;2023-05-03T05:41:11;100599.84;;;13.23;100.00
46347;BME280;32057;47.830;19.046;2023-05-03T05:43:37;100592.06;;;13.27;100.00
46347;BME280;32057;47.830;19.046;2023-05-03T05:46:02;100581.72;;;13.33;100.00
46347;BME280;32057;47.830;19.046;2023-05-03T05:48:28;100594.13;;;13.47;100.00
46347;BME280;32057;47.830;19.046;2023-05-03T05:50:53;100596.75;;;13.50;100.00
46347;BME280;32057;47.830;19.046;2023-05-03T05:53:19;100590.72;;;13.54;100.00
46347;BME280;32057;47.830;19.046;2023-05-03T05:55:44;100588.09;;;13.52;100.00
46347;BME280;32057;47.830;19.046;2023-05-03T05:58:09;100590.84;;;13.65;100.00
46347;BME280;32057;47.830;19.046;2023-05-03T06:00:37;100596.88;;;13.59;100.00
46347;BME280;32057;47.830;19.046;2023-05-03T06:03:02;100596.13;;;13.69;100.00
46347;BME280;32057;47.830;19.046;2023-05-03T06:05:28;100592.75;;;13.80;100.00
46347;BME280;32057;47.830;19.046;2023-05-03T06:07:53;100611.16;;;13.87;100.00
46347;BME280;32057;47.830;19.046;2023-05-03T06:10:18;100597.22;;;13.88;100.00
46347;BME280;32057;47.830;19.046;2023-05-03T06:12:44;100596.16;;;13.72;100.00
46347;BME280;32057;47.830;19.046;2023-05-03T06:15:09;100598.78;;;13.72;100.00
46347;BME280;32057;47.830;19.046;2023-05-03T06:17:35;100590.00;;;13.67;100.00
46347;BME280;32057;47.830;19.046;2023-05-03T06:20:01;100589.09;;;13.65;100.00
46347;BME280;32057;47.830;19.046;2023-05-03T06:22:26;100594.31;;;13.62;100.00
46347;BME280;32057;47.830;19.046;2023-05-03T06:24:52;100598.66;;;13.63;100.00
46347;BME280;32057;47.830;19.046;2023-05-03T06:27:17;100602.13;;;13.61;100.00
46347;BME280;32057;47.830;19.046;2023-05-03T06:29:43;100603.91;;;13.65;100.00
46347;BME280;32057;47.830;19.046;2023-05-03T06:32:09;100620.63;;;13.78;100.00
46347;BME280;32057;47.830;19.046;2023-05-03T06:34:35;100623.34;;;13.87;100.00
46347;BME280;32057;47.830;19.046;2023-05-03T06:37:01;100632.16;;;13.92;100.00
46347;BME280;32057;47.830;19.046;2023-05-03T06:39:27;100632.16;;;13.95;100.00
46347;BME280;32057;47.830;19.046;2023-05-03T06:41:52;100630.50;;;14.03;100.00
46347;BME280;32057;47.830;19.046;2023-05-03T06:44:18;100640.91;;;13.97;100.00
46347;BME280;32057;47.830;19.046;2023-05-03T06:46:44;100632.28;;;14.06;100.00
46347;BME280;32057;47.830;19.046;2023-05-03T06:49:09;100644.56;;;14.13;100.00
46347;BME280;32057;47.830;19.046;2023-05-03T06:51:35;100646.38;;;14.19;100.00
46347;BME280;32057;47.830;19.046;2023-05-03T06:54:01;100643.81;;;14.23;100.00
46347;BME280;32057;47.830;19.046;2023-05-03T06:56:31;100657.75;;;14.21;100.00
46347;BME280;32057;47.830;19.046;2023-05-03T06:58:58;100654.25;;;14.22;100.00
46347;BME280;32057;47.830;19.046;2023-05-03T07:01:24;100652.47;;;14.14;100.00
46347;BME280;32057;47.830;19.046;2023-05-03T07:03:49;100655.84;;;14.07;100.00
46347;BME280;32057;47.830;19.046;2023-05-03T07:06:14;100655.03;;;14.10;100.00
46347;BME280;32057;47.830;19.046;2023-05-03T07:08:41;100658.59;;;14.18;100.00
46347;BME280;32057;47.830;19.046;2023-05-03T07:11:06;100655.06;;;14.14;100.00
46347;BME280;32057;47.830;19.046;2023-05-03T07:13:31;100655.97;;;14.17;100.00
46347;BME280;32057;47.830;19.046;2023-05-03T07:15:57;100656.88;;;14.20;100.00
46347;BME280;32057;47.830;19.046;2023-05-03T07:18:23;100663.06;;;14.27;100.00
46347;BME280;32057;47.830;19.046;2023-05-03T07:20:48;100662.25;;;14.34;100.00
46347;BME280;32057;47.830;19.046;2023-05-03T07:23:14;100665.84;;;14.42;100.00
46347;BME280;32057;47.830;19.046;2023-05-03T07:25:41;100658.03;;;14.51;100.00
46347;BME280;32057;47.830;19.046;2023-05-03T07:28:06;100665.00;;;14.49;100.00
46347;BME280;32057;47.830;19.046;2023-05-03T07:30:32;100663.28;;;14.48;100.00
46347;BME280;32057;47.830;19.046;2023-05-03T07:32:57;100671.13;;;14.51;100.00
46347;BME280;32057;47.830;19.046;2023-05-03T07:35:23;100680.78;;;14.52;100.00
46347;BME280;32057;47.830;19.046;2023-05-03T07:37:48;100675.44;;;14.45;100.00
46347;BME280;32057;47.830;19.046;2023-05-03T07:40:14;100676.25;;;14.36;100.00
46347;BME280;32057;47.830;19.046;2023-05-03T07:42:39;100678.13;;;14.48;100.00
46347;BME280;32057;47.830;19.046;2023-05-03T07:45:05;100675.53;;;14.52;100.00
46347;BME280;32057;47.830;19.046;2023-05-03T07:47:32;100682.53;;;14.52;100.00
46347;BME280;32057;47.830;19.046;2023-05-03T07:50:01;100676.50;;;14.59;100.00
46347;BME280;32057;47.830;19.046;2023-05-03T07:52:29;100682.66;;;14.63;100.00
46347;BME280;32057;47.830;19.046;2023-05-03T07:54:54;100680.00;;;14.58;100.00
46347;BME280;32057;47.830;19.046;2023-05-03T07:57:20;100679.00;;;14.51;100.00
46347;BME280;32057;47.830;19.046;2023-05-03T07:59:47;100674.69;;;14.55;100.00
46347;BME280;32057;47.830;19.046;2023-05-03T08:02:13;100676.47;;;14.56;100.00
46347;BME280;32057;47.830;19.046;2023-05-03T08:04:38;100690.53;;;14.64;100.00
46347;BME280;32057;47.830;19.046;2023-05-03T08:07:04;100690.50;;;14.63;100.00
46347;BME280;32057;47.830;19.046;2023-05-03T08:09:29;100686.16;;;14.65;100.00
46347;BME280;32057;47.830;19.046;2023-05-03T08:11:55;100680.06;;;14.66;100.00
46347;BME280;32057;47.830;19.046;2023-05-03T08:14:21;100682.69;;;14.69;100.00
46347;BME280;32057;47.830;19.046;2023-05-03T08:16:47;100684.56;;;14.85;100.00
46347;BME280;32057;47.830;19.046;2023-05-03T08:19:13;100691.59;;;14.86;100.00
46347;BME280;32057;47.830;19.046;2023-05-03T08:21:38;100686.41;;;14.92;100.00
46347;BME280;32057;47.830;19.046;2023-05-03T08:24:04;100681.25;;;15.05;100.00
46347;BME280;32057;47.830;19.046;2023-05-03T08:26:34;100682.19;;;15.18;100.00
46347;BME280;32057;47.830;19.046;2023-05-03T08:29:00;100686.69;;;15.28;100.00
46347;BME280;32057;47.830;19.046;2023-05-03T08:31:27;100686.81;;;15.48;100.00
46347;BME280;32057;47.830;19.046;2023-05-03T08:33:54;100692.09;;;15.54;100.00
46347;BME280;32057;47.830;19.046;2023-05-03T08:36:20;100689.50;;;15.60;100.00
46347;BME280;32057;47.830;19.046;2023-05-03T08:38:45;100692.09;;;15.63;100.00
46347;BME280;32057;47.830;19.046;2023-05-03T08:41:23;100687.00;;;15.76;100.00
46347;BME280;32057;47.830;19.046;2023-05-03T08:43:52;100687.00;;;15.80;100.00
46347;BME280;32057;47.830;19.046;2023-05-03T08:46:19;100701.00;;;15.78;100.00
46347;BME280;32057;47.830;19.046;2023-05-03T08:48:48;100694.06;;;15.98;100.00
46347;BME280;32057;47.830;19.046;2023-05-03T08:51:15;100699.34;;;16.07;100.00
46347;BME280;32057;47.830;19.046;2023-05-03T08:53:41;100706.41;;;16.16;100.00
46347;BME280;32057;47.830;19.046;2023-05-03T08:56:11;100709.75;;;15.83;100.00
46347;BME280;32057;47.830;19.046;2023-05-03T08:58:37;100709.78;;;15.86;100.00
46347;BME280;32057;47.830;19.046;2023-05-03T09:01:04;100710.63;;;15.85;100.00
46347;BME280;32057;47.830;19.046;2023-05-03T09:03:30;100709.81;;;16.01;100.00
46347;BME280;32057;47.830;19.046;2023-05-03T09:05:56;100711.66;;;16.25;100.00
46347;BME280;32057;47.830;19.046;2023-05-03T09:08:29;100709.97;;;16.50;100.00
46347;BME280;32057;47.830;19.046;2023-05-03T09:10:55;100717.03;;;16.64;100.00
46347;BME280;32057;47.830;19.046;2023-05-03T09:13:29;100710.88;;;16.71;100.00
46347;BME280;32057;47.830;19.046;2023-05-03T09:15:55;100713.44;;;16.32;100.00
46347;BME280;32057;47.830;19.046;2023-05-03T09:18:21;100710.81;;;16.37;100.00
46347;BME280;32057;47.830;19.046;2023-05-03T09:20:49;100709.09;;;16.45;100.00
46347;BME280;32057;47.830;19.046;2023-05-03T09:23:17;100712.56;;;16.41;100.00
46347;BME280;32057;47.830;19.046;2023-05-03T09:25:48;100714.34;;;16.48;100.00
46347;BME280;32057;47.830;19.046;2023-05-03T09:28:16;100711.75;;;16.58;100.00
46347;BME280;32057;47.830;19.046;2023-05-03T09:30:43;100715.25;;;16.57;100.00
46347;BME280;32057;47.830;19.046;2023-05-03T09:33:09;100705.63;;;16.79;100.00
46347;BME280;32057;47.830;19.046;2023-05-03T09:35:38;100715.31;;;16.97;100.00
46347;BME280;32057;47.830;19.046;2023-05-03T09:38:46;100708.31;;;17.11;100.00
46347;BME280;32057;47.830;19.046;2023-05-03T09:41:11;100710.06;;;17.09;100.00
46347;BME280;32057;47.830;19.046;2023-05-03T09:43:50;100708.31;;;17.11;100.00
46347;BME280;32057;47.830;19.046;2023-05-03T09:46:17;100713.56;;;16.92;100.00
46347;BME280;32057;47.830;19.046;2023-05-03T09:48:43;100711.81;;;17.01;100.00
46347;BME280;32057;47.830;19.046;2023-05-03T09:51:10;100711.84;;;17.11;100.00
46347;BME280;32057;47.830;19.046;2023-05-03T09:53:37;100717.97;;;17.07;100.00
46347;BME280;32057;47.830;19.046;2023-05-03T09:56:04;100712.69;;;17.17;100.00
46347;BME280;32057;47.830;19.046;2023-05-03T09:58:32;100717.94;;;17.23;100.00
46347;BME280;32057;47.830;19.046;2023-05-03T10:00:59;100708.28;;;17.23;100.00
46347;BME280;32057;47.830;19.046;2023-05-03T10:03:43;100715.28;;;17.43;100.00
46347;BME280;32057;47.830;19.046;2023-05-03T10:06:25;100710.03;;;17.37;100.00
46347;BME280;32057;47.830;19.046;2023-05-03T10:11:51;100708.31;;;17.08;100.00
46347;BME280;32057;47.830;19.046;2023-05-03T10:14:18;100699.53;;;17.09;100.00
46347;BME280;32057;47.830;19.046;2023-05-03T10:16:47;100696.03;;;17.15;100.00
46347;BME280;32057;47.830;19.046;2023-05-03T10:19:18;100697.78;;;17.29;100.00
46347;BME280;32057;47.830;19.046;2023-05-03T10:22:09;100689.00;;;17.21;100.00
46347;BME280;32057;47.830;19.046;2023-05-03T10:24:37;100689.84;;;17.37;100.00
46347;BME280;32057;47.830;19.046;2023-05-03T10:27:06;100684.59;;;17.49;100.00
46347;BME280;32057;47.830;19.046;2023-05-03T10:32:02;100681.03;;;17.61;100.00
46347;BME280;32057;47.830;19.046;2023-05-03T10:34:32;100681.88;;;17.82;100.00
46347;BME280;32057;47.830;19.046;2023-05-03T10:37:06;100674.84;;;17.79;100.00
46347;BME280;32057;47.830;19.046;2023-05-03T10:39:32;100683.72;;;17.43;100.00
46347;BME280;32057;47.830;19.046;2023-05-03T10:41:58;100680.22;;;17.41;100.00
46347;BME280;32057;47.830;19.046;2023-05-03T10:44:27;100680.16;;;17.62;100.00
46347;BME280;32057;47.830;19.046;2023-05-03T10:46:53;100680.22;;;17.35;100.00
46347;BME280;32057;47.830;19.046;2023-05-03T10:49:23;100681.97;;;17.48;100.00
46347;BME280;32057;47.830;19.046;2023-05-03T10:51:50;100683.66;;;17.70;100.00
46347;BME280;32057;47.830;19.046;2023-05-03T10:54:16;100675.72;;;17.77;100.00
46347;BME280;32057;47.830;19.046;2023-05-03T10:57:01;100674.88;;;17.78;100.00
46347;BME280;32057;47.830;19.046;2023-05-03T10:59:45;100677.41;;;17.99;100.00
46347;BME280;32057;47.830;19.046;2023-05-03T11:02:15;100681.88;;;17.72;100.00
46347;BME280;32057;47.830;19.046;2023-05-03T11:04:44;100686.28;;;17.63;100.00
46347;BME280;32057;47.830;19.046;2023-05-03T11:07:19;100688.09;;;17.58;100.00
46347;BME280;32057;47.830;19.046;2023-05-03T11:09:46;100681.91;;;17.66;100.00
46347;BME280;32057;47.830;19.046;2023-05-03T11:12:12;100676.63;;;17.76;100.00
46347;BME280;32057;47.830;19.046;2023-05-03T11:14:37;100673.16;;;17.67;100.00
46347;BME280;32057;47.830;19.046;2023-05-03T11:17:04;100677.59;;;17.51;100.00
46347;BME280;32057;47.830;19.046;2023-05-03T11:19:30;100675.75;;;17.74;100.00
46347;BME280;32057;47.830;19.046;2023-05-03T11:21:56;100677.53;;;17.59;100.00
46347;BME280;32057;47.830;19.046;2023-05-03T11:24:21;100674.84;;;17.75;100.00
46347;BME280;32057;47.830;19.046;2023-05-03T11:26:47;100672.25;;;17.71;100.00
46347;BME280;32057;47.830;19.046;2023-05-03T11:29:13;100675.72;;;17.90;100.00
46347;BME280;32057;47.830;19.046;2023-05-03T11:31:41;100676.53;;;17.99;100.00
46347;BME280;32057;47.830;19.046;2023-05-03T11:34:10;100680.09;;;17.81;100.00
46347;BME280;32057;47.830;19.046;2023-05-03T11:36:36;100678.38;;;17.70;100.00
46347;BME280;32057;47.830;19.046;2023-05-03T11:39:01;100675.69;;;17.81;100.00
46347;BME280;32057;47.830;19.046;2023-05-03T11:41:29;100681.03;;;17.63;100.00
46347;BME280;32057;47.830;19.046;2023-05-03T11:43:56;100681.09;;;17.37;100.00
46347;BME280;32057;47.830;19.046;2023-05-03T11:46:24;100680.25;;;17.31;100.00
46347;BME280;32057;47.830;19.046;2023-05-03T11:48:50;100680.22;;;17.41;100.00
46347;BME280;32057;47.830;19.046;2023-05-03T11:51:21;100675.81;;;17.43;100.00
46347;BME280;32057;47.830;19.046;2023-05-03T11:53:47;100681.09;;;17.44;100.00
46347;BME280;32057;47.830;19.046;2023-05-03T11:56:13;100674.06;;;17.46;100.00
46347;BME280;32057;47.830;19.046;2023-05-03T11:58:54;100674.97;;;17.38;100.00
46347;BME280;32057;47.830;19.046;2023-05-03T12:01:23;100670.56;;;17.47;100.00
46347;BME280;32057;47.830;19.046;2023-05-03T12:03:56;100673.22;;;17.40;100.00
46347;BME280;32057;47.830;19.046;2023-05-03T12:06:22;100675.81;;;17.43;100.00
46347;BME280;32057;47.830;19.046;2023-05-03T12:08:48;100671.44;;;17.39;100.00
46347;BME280;32057;47.830;19.046;2023-05-03T12:11:13;100670.56;;;17.44;100.00
46347;BME280;32057;47.830;19.046;2023-05-03T12:13:39;100667.94;;;17.46;100.00
46347;BME280;32057;47.830;19.046;2023-05-03T12:16:08;100669.69;;;17.50;100.00
46347;BME280;32057;47.830;19.046;2023-05-03T12:21:10;100668.81;;;17.49;100.00
46347;BME280;32057;47.830;19.046;2023-05-03T12:23:36;100671.41;;;17.51;100.00
46347;BME280;32057;47.830;19.046;2023-05-03T12:26:02;100675.84;;;17.32;100.00
46347;BME280;32057;47.830;19.046;2023-05-03T12:28:27;100669.75;;;17.24;100.00
46347;BME280;32057;47.830;19.046;2023-05-03T12:30:53;100660.97;;;17.03;100.00
46347;BME280;32057;47.830;19.046;2023-05-03T12:33:18;100662.75;;;16.97;100.00
46347;BME280;32057;47.830;19.046;2023-05-03T12:35:45;100654.84;;;17.04;100.00
46347;BME280;32057;47.830;19.046;2023-05-03T12:38:11;100659.25;;;16.96;100.00
46347;BME280;32057;47.830;19.046;2023-05-03T12:40:37;100649.59;;;16.98;100.00
46347;BME280;32057;47.830;19.046;2023-05-03T12:43:03;100649.63;;;17.00;100.00